sensor_id;sensor_type;location;lat;lon;timestamp;pressure;altitude;pressure_sealevel;temperature;humidity
71126;BME280;58785;55.566;38.058;2023-03-01T00:01:01;99464.34;;;-3.00;58.34
71126;BME280;58785;55.566;38.058;2023-03-01T00:03:27;99468.28;;;-2.93;58.73
71126;BME280;58785;55.566;38.058;2023-03-01T00:05:53;99465.75;;;-2.94;59.22
71126;BME280;58785;55.566;38.058;2023-03-01T00:08:19;99460.00;;;-3.01;58.91
71126;BME280;58785;55.566;38.058;2023-03-01T00:10:44;99477.38;;;-3.00;59.13
71126;BME280;58785;55.566;38.058;2023-03-01T00:13:10;99457.47;;;-3.02;59.08
71126;BME280;58785;55.566;38.058;2023-03-01T00:15:39;99461.72;;;-3.00;59.10
71126;BME280;58785;55.566;38.058;2023-03-01T00:18:07;99460.00;;;-3.01;59.46
71126;BME280;58785;55.566;38.058;2023-03-01T00:20:35;99454.03;;;-3.03;58.76
71126;BME280;58785;55.566;38.058;2023-03-01T00:23:01;99454.19;;;-3.06;59.81
71126;BME280;58785;55.566;38.058;2023-03-01T00:25:26;99449.16;;;-3.09;59.47
71126;BME280;58785;55.566;38.058;2023-03-01T00:27:52;99445.69;;;-3.09;59.36
71126;BME280;58785;55.566;38.058;2023-03-01T00:30:18;99461.09;;;-3.05;59.14
71126;BME280;58785;55.566;38.058;2023-03-01T00:32:43;99455.28;;;-3.10;59.70
71126;BME280;58785;55.566;38.058;2023-03-01T00:35:09;99450.28;;;-3.14;59.63
71126;BME280;58785;55.566;38.058;2023-03-01T00:37:35;99440.94;;;-3.19;59.68
71126;BME280;58785;55.566;38.058;2023-03-01T00:40:00;99458.13;;;-3.14;59.65
71126;BME280;58785;55.566;38.058;2023-03-01T00:42:26;99452.31;;;-3.20;60.24
71126;BME280;58785;55.566;38.058;2023-03-01T00:44:51;99441.94;;;-3.21;60.68
71126;BME280;58785;55.566;38.058;2023-03-01T00:47:17;99439.50;;;-3.24;60.22
71126;BME280;58785;55.566;38.058;2023-03-01T00:49:42;99435.34;;;-3.28;60.07
71126;BME280;58785;55.566;38.058;2023-03-01T00:52:08;99440.41;;;-3.25;60.28
71126;BME280;58785;55.566;38.058;2023-03-01T00:54:34;99453.22;;;-3.21;60.27
71126;BME280;58785;55.566;38.058;2023-03-01T00:56:59;99456.72;;;-3.22;60.43
71126;BME280;58785;55.566;38.058;2023-03-01T00:59:25;99442.25;;;-3.27;60.28
71126;BME280;58785;55.566;38.058;2023-03-01T01:01:50;99456.88;;;-3.25;59.98
71126;BME280;58785;55.566;38.058;2023-03-01T01:04:16;99453.44;;;-3.25;59.99
71126;BME280;58785;55.566;38.058;2023-03-01T01:06:44;99451.97;;;-3.31;60.34
71126;BME280;58785;55.566;38.058;2023-03-01T01:09:13;99453.53;;;-3.27;60.56
71126;BME280;58785;55.566;38.058;2023-03-01T01:11:46;99456.28;;;-3.30;60.50
71126;BME280;58785;55.566;38.058;2023-03-01T01:14:13;99444.41;;;-3.35;60.51
71126;BME280;58785;55.566;38.058;2023-03-01T01:16:39;99457.97;;;-3.29;60.35
71126;BME280;58785;55.566;38.058;2023-03-01T01:19:05;99457.91;;;-3.27;60.63
71126;BME280;58785;55.566;38.058;2023-03-01T01:21:31;99460.50;;;-3.27;60.11
71126;BME280;58785;55.566;38.058;2023-03-01T01:23:57;99458.75;;;-3.27;60.43
71126;BME280;58785;55.566;38.058;2023-03-01T01:26:29;99451.94;;;-3.29;60.24
71126;BME280;58785;55.566;38.058;2023-03-01T01:28:56;99461.50;;;-3.30;60.16
71126;BME280;58785;55.566;38.058;2023-03-01T01:31:23;99456.22;;;-3.28;59.82
71126;BME280;58785;55.566;38.058;2023-03-01T01:33:50;99451.09;;;-3.30;60.03
71126;BME280;58785;55.566;38.058;2023-03-01T01:36:16;99440.28;;;-3.39;59.49
71126;BME280;58785;55.566;38.058;2023-03-01T01:38:42;99457.44;;;-3.35;59.79
71126;BME280;58785;55.566;38.058;2023-03-01T01:41:09;99451.47;;;-3.37;60.25
71126;BME280;58785;55.566;38.058;2023-03-01T01:43:43;99441.25;;;-3.42;59.45
71126;BME280;58785;55.566;38.058;2023-03-01T01:46:31;99452.22;;;-3.35;60.29
71126;BME280;58785;55.566;38.058;2023-03-01T01:49:01;99432.50;;;-3.41;60.00
71126;BME280;58785;55.566;38.058;2023-03-01T01:51:32;99440.94;;;-3.36;59.92
71126;BME280;58785;55.566;38.058;2023-03-01T01:54:10;99444.41;;;-3.35;60.03
71126;BME280;58785;55.566;38.058;2023-03-01T01:56:38;99422.94;;;-3.40;60.06
71126;BME280;58785;55.566;38.058;2023-03-01T01:59:05;99438.25;;;-3.34;59.73
71126;BME280;58785;55.566;38.058;2023-03-01T02:01:31;99438.59;;;-3.40;59.89
71126;BME280;58785;55.566;38.058;2023-03-01T02:03:57;99456.34;;;-3.31;60.01
71126;BME280;58785;55.566;38.058;2023-03-01T02:06:49;99438.50;;;-3.39;59.68
71126;BME280;58785;55.566;38.058;2023-03-01T02:09:18;99452.91;;;-3.32;59.80
71126;BME280;58785;55.566;38.058;2023-03-01T02:11:44;99459.97;;;-3.34;60.04
71126;BME280;58785;55.566;38.058;2023-03-01T02:14:10;99442.94;;;-3.41;59.79
71126;BME280;58785;55.566;38.058;2023-03-01T02:16:36;99453.06;;;-3.35;59.42
71126;BME280;58785;55.566;38.058;2023-03-01T02:19:03;99443.63;;;-3.37;59.41
71126;BME280;58785;55.566;38.058;2023-03-01T02:21:55;99440.66;;;-3.30;59.46
71126;BME280;58785;55.566;38.058;2023-03-01T02:24:38;99444.03;;;-3.28;59.87
71126;BME280;58785;55.566;38.058;2023-03-01T02:27:06;99436.28;;;-3.29;59.84
71126;BME280;58785;55.566;38.058;2023-03-01T02:29:32;99454.06;;;-3.20;59.39
71126;BME280;58785;55.566;38.058;2023-03-01T02:31:59;99445.63;;;-3.25;58.91
71126;BME280;58785;55.566;38.058;2023-03-01T02:34:27;99454.59;;;-3.31;59.60
71126;BME280;58785;55.566;38.058;2023-03-01T02:37:01;99452.22;;;-3.35;59.41
71126;BME280;58785;55.566;38.058;2023-03-01T02:39:52;99447.94;;;-3.36;59.55
71126;BME280;58785;55.566;38.058;2023-03-01T02:42:22;99440.47;;;-3.44;59.30
71126;BME280;58785;55.566;38.058;2023-03-01T02:44:49;99449.06;;;-3.42;58.87
71126;BME280;58785;55.566;38.058;2023-03-01T02:47:15;99441.03;;;-3.37;58.92
71126;BME280;58785;55.566;38.058;2023-03-01T02:49:41;99453.97;;;-3.36;59.42
71126;BME280;58785;55.566;38.058;2023-03-01T02:57:26;99434.97;;;-3.55;59.38
71126;BME280;58785;55.566;38.058;2023-03-01T02:59:54;99436.03;;;-3.59;59.24
71126;BME280;58785;55.566;38.058;2023-03-01T03:02:25;99452.34;;;-3.56;59.36
71126;BME280;58785;55.566;38.058;2023-03-01T03:07:35;99458.78;;;-3.63;59.77
71126;BME280;58785;55.566;38.058;2023-03-01T03:10:03;99454.56;;;-3.65;59.99
71126;BME280;58785;55.566;38.058;2023-03-01T03:12:30;99459.94;;;-3.68;59.81
71126;BME280;58785;55.566;38.058;2023-03-01T03:14:56;99456.56;;;-3.70;59.72
71126;BME280;58785;55.566;38.058;2023-03-01T03:17:22;99455.84;;;-3.74;59.67
71126;BME280;58785;55.566;38.058;2023-03-01T03:19:48;99462.97;;;-3.78;60.01
71126;BME280;58785;55.566;38.058;2023-03-01T03:22:13;99463.19;;;-3.82;60.35
71126;BME280;58785;55.566;38.058;2023-03-01T03:24:39;99462.50;;;-3.86;59.79
71126;BME280;58785;55.566;38.058;2023-03-01T03:27:05;99452.25;;;-3.89;60.37
71126;BME280;58785;55.566;38.058;2023-03-01T03:29:31;99453.19;;;-3.91;60.07
71126;BME280;58785;55.566;38.058;2023-03-01T03:31:57;99448.38;;;-3.99;60.02
71126;BME280;58785;55.566;38.058;2023-03-01T03:34:22;99462.94;;;-3.95;60.65
71126;BME280;58785;55.566;38.058;2023-03-01T03:36:53;99451.91;;;-4.00;60.48
71126;BME280;58785;55.566;38.058;2023-03-01T03:39:23;99459.75;;;-4.01;60.54
71126;BME280;58785;55.566;38.058;2023-03-01T03:41:49;99448.06;;;-4.10;59.94
71126;BME280;58785;55.566;38.058;2023-03-01T03:44:14;99464.97;;;-4.01;60.64
71126;BME280;58785;55.566;38.058;2023-03-01T03:46:40;99471.19;;;-4.04;60.17
71126;BME280;58785;55.566;38.058;2023-03-01T03:49:06;99466.03;;;-4.06;60.16
71126;BME280;58785;55.566;38.058;2023-03-01T03:51:33;99467.88;;;-4.08;60.29
71126;BME280;58785;55.566;38.058;2023-03-01T03:53:59;99476.72;;;-4.12;60.83
71126;BME280;58785;55.566;38.058;2023-03-01T03:56:24;99458.97;;;-4.21;60.72
71126;BME280;58785;55.566;38.058;2023-03-01T03:58:52;99461.63;;;-4.22;60.29
71126;BME280;58785;55.566;38.058;2023-03-01T04:01:18;99468.38;;;-4.18;61.02
71126;BME280;58785;55.566;38.058;2023-03-01T04:03:43;99470.97;;;-4.18;60.68
71126;BME280;58785;55.566;38.058;2023-03-01T04:06:13;99480.63;;;-4.20;60.49
71126;BME280;58785;55.566;38.058;2023-03-01T04:08:39;99480.66;;;-4.22;61.00
71126;BME280;58785;55.566;38.058;2023-03-01T04:11:05;99478.06;;;-4.22;61.47
71126;BME280;58785;55.566;38.058;2023-03-01T04:13:51;99497.09;;;-4.20;61.14
71126;BME280;58785;55.566;38.058;2023-03-01T04:16:18;99468.03;;;-4.29;60.84
71126;BME280;58785;55.566;38.058;2023-03-01T04:18:43;99494.41;;;-4.18;61.06
71126;BME280;58785;55.566;38.058;2023-03-01T04:21:09;99478.78;;;-4.18;60.52
71126;BME280;58785;55.566;38.058;2023-03-01T04:23:37;99490.81;;;-4.16;60.76
71126;BME280;58785;55.566;38.058;2023-03-01T04:26:03;99486.38;;;-4.14;60.92
71126;BME280;58785;55.566;38.058;2023-03-01T04:28:34;99482.84;;;-4.13;60.69
71126;BME280;58785;55.566;38.058;2023-03-01T04:31:13;99479.97;;;-4.07;61.28
71126;BME280;58785;55.566;38.058;2023-03-01T04:33:41;99494.19;;;-3.95;60.82
71126;BME280;58785;55.566;38.058;2023-03-01T04:36:08;99490.03;;;-3.99;60.73
71126;BME280;58785;55.566;38.058;2023-03-01T04:38:35;99502.84;;;-3.94;60.58
71126;BME280;58785;55.566;38.058;2023-03-01T04:41:04;99502.69;;;-3.91;61.01
71126;BME280;58785;55.566;38.058;2023-03-01T04:43:29;99505.16;;;-3.88;60.23
71126;BME280;58785;55.566;38.058;2023-03-01T04:46:03;99493.66;;;-3.84;60.69
71126;BME280;58785;55.566;38.058;2023-03-01T04:48:30;99499.53;;;-3.79;60.38
71126;BME280;58785;55.566;38.058;2023-03-01T04:50:58;99507.59;;;-3.66;60.54
71126;BME280;58785;55.566;38.058;2023-03-01T04:53:24;99509.91;;;-3.60;60.62
71126;BME280;58785;55.566;38.058;2023-03-01T04:55:50;99520.03;;;-3.54;60.27
71126;BME280;58785;55.566;38.058;2023-03-01T04:58:16;99512.69;;;-3.46;59.52
71126;BME280;58785;55.566;38.058;2023-03-01T05:00:41;99510.56;;;-3.38;60.33
71126;BME280;58785;55.566;38.058;2023-03-01T05:03:08;99514.53;;;-3.31;59.74
71126;BME280;58785;55.566;38.058;2023-03-01T05:05:36;99501.81;;;-3.37;59.63
71126;BME280;58785;55.566;38.058;2023-03-01T05:08:05;99509.41;;;-3.32;59.90
71126;BME280;58785;55.566;38.058;2023-03-01T05:10:33;99524.06;;;-3.30;59.60
71126;BME280;58785;55.566;38.058;2023-03-01T05:13:00;99518.44;;;-3.22;59.65
71126;BME280;58785;55.566;38.058;2023-03-01T05:15:28;99524.91;;;-3.12;59.88
71126;BME280;58785;55.566;38.058;2023-03-01T05:17:56;99507.34;;;-3.08;59.30
71126;BME280;58785;55.566;38.058;2023-03-01T05:20:23;99525.06;;;-2.98;59.89
71126;BME280;58785;55.566;38.058;2023-03-01T05:22:50;99519.31;;;-3.04;59.30
71126;BME280;58785;55.566;38.058;2023-03-01T05:25:16;99528.44;;;-2.96;59.75
71126;BME280;58785;55.566;38.058;2023-03-01T05:27:42;99537.09;;;-2.95;59.40
71126;BME280;58785;55.566;38.058;2023-03-01T05:30:09;99531.28;;;-3.00;59.44
71126;BME280;58785;55.566;38.058;2023-03-01T05:32:45;99545.84;;;-2.96;59.58
71126;BME280;58785;55.566;38.058;2023-03-01T05:35:12;99541.56;;;-2.97;59.92
71126;BME280;58785;55.566;38.058;2023-03-01T05:37:42;99550.69;;;-3.06;59.67
71126;BME280;58785;55.566;38.058;2023-03-01T05:40:10;99543.78;;;-3.07;59.92
71126;BME280;58785;55.566;38.058;2023-03-01T05:42:47;99551.06;;;-2.96;59.87
71126;BME280;58785;55.566;38.058;2023-03-01T05:45:15;99553.38;;;-2.90;59.50
71126;BME280;58785;55.566;38.058;2023-03-01T05:47:43;99543.78;;;-2.90;59.41
71126;BME280;58785;55.566;38.058;2023-03-01T05:52:36;99552.75;;;-2.78;59.56
71126;BME280;58785;55.566;38.058;2023-03-01T05:55:02;99551.59;;;-2.72;59.30
71126;BME280;58785;55.566;38.058;2023-03-01T05:57:28;99541.78;;;-2.67;58.96
71126;BME280;58785;55.566;38.058;2023-03-01T05:59:55;99538.38;;;-2.52;58.82
71126;BME280;58785;55.566;38.058;2023-03-01T06:02:20;99558.91;;;-2.28;58.20
71126;BME280;58785;55.566;38.058;2023-03-01T06:04:46;99553.22;;;-2.19;57.98
71126;BME280;58785;55.566;38.058;2023-03-01T06:07:11;99557.38;;;-1.99;58.23
71126;BME280;58785;55.566;38.058;2023-03-01T06:09:37;99555.69;;;-1.85;57.95
71126;BME280;58785;55.566;38.058;2023-03-01T06:12:03;99558.16;;;-1.66;57.33
71126;BME280;58785;55.566;38.058;2023-03-01T06:14:29;99561.75;;;-1.53;57.21
71126;BME280;58785;55.566;38.058;2023-03-01T06:16:54;99558.66;;;-1.43;57.33
71126;BME280;58785;55.566;38.058;2023-03-01T06:19:20;99549.25;;;-1.32;56.58
71126;BME280;58785;55.566;38.058;2023-03-01T06:21:45;99555.34;;;-1.31;56.94
71126;BME280;58785;55.566;38.058;2023-03-01T06:24:11;99557.34;;;-1.21;56.71
71126;BME280;58785;55.566;38.058;2023-03-01T06:26:37;99564.28;;;-1.20;56.58
71126;BME280;58785;55.566;38.058;2023-03-01T06:29:02;99558.78;;;-1.31;56.91
71126;BME280;58785;55.566;38.058;2023-03-01T06:31:28;99562.69;;;-1.38;56.88
71126;BME280;58785;55.566;38.058;2023-03-01T06:33:54;99574.59;;;-1.48;57.00
71126;BME280;58785;55.566;38.058;2023-03-01T06:36:19;99575.69;;;-1.52;57.27
71126;BME280;58785;55.566;38.058;2023-03-01T06:38:46;99585.06;;;-1.48;57.32
71126;BME280;58785;55.566;38.058;2023-03-01T06:41:12;99583.84;;;-1.42;57.07
71126;BME280;58785;55.566;38.058;2023-03-01T06:43:37;99585.22;;;-1.35;57.10
71126;BME280;58785;55.566;38.058;2023-03-01T06:46:04;99583.19;;;-1.30;57.27
71126;BME280;58785;55.566;38.058;2023-03-01T06:48:30;99577.78;;;-1.27;57.16
71126;BME280;58785;55.566;38.058;2023-03-01T06:51:00;99592.28;;;-1.06;57.06
71126;BME280;58785;55.566;38.058;2023-03-01T06:53:28;99589.97;;;-0.96;56.92
71126;BME280;58785;55.566;38.058;2023-03-01T06:55:55;99589.03;;;-0.95;56.74
71126;BME280;58785;55.566;38.058;2023-03-01T06:58:23;99602.44;;;-0.85;56.83
71126;BME280;58785;55.566;38.058;2023-03-01T07:00:49;99614.34;;;-0.80;56.48
71126;BME280;58785;55.566;38.058;2023-03-01T07:03:14;99598.47;;;-0.93;56.61
71126;BME280;58785;55.566;38.058;2023-03-01T07:05:40;99606.81;;;-0.86;56.64
71126;BME280;58785;55.566;38.058;2023-03-01T07:08:05;99606.13;;;-0.74;56.14
71126;BME280;58785;55.566;38.058;2023-03-01T07:10:31;99609.47;;;-0.72;56.08
71126;BME280;58785;55.566;38.058;2023-03-01T07:12:58;99605.34;;;-0.60;56.21
71126;BME280;58785;55.566;38.058;2023-03-01T07:15:24;99613.50;;;-0.36;55.67
71126;BME280;58785;55.566;38.058;2023-03-01T07:17:50;99621.22;;;-0.19;55.65
71126;BME280;58785;55.566;38.058;2023-03-01T07:20:18;99623.34;;;-0.11;55.60
71126;BME280;58785;55.566;38.058;2023-03-01T07:22:44;99622.72;;;-0.01;55.18
71126;BME280;58785;55.566;38.058;2023-03-01T07:25:10;99607.56;;;0.05;55.10
71126;BME280;58785;55.566;38.058;2023-03-01T07:27:36;99608.69;;;0.01;55.51
71126;BME280;58785;55.566;38.058;2023-03-01T07:30:02;99618.97;;;0.18;55.08
71126;BME280;58785;55.566;38.058;2023-03-01T07:32:29;99627.34;;;0.10;55.03
71126;BME280;58785;55.566;38.058;2023-03-01T07:34:55;99627.59;;;0.34;54.83
71126;BME280;58785;55.566;38.058;2023-03-01T07:37:21;99626.41;;;0.81;54.50
71126;BME280;58785;55.566;38.058;2023-03-01T07:39:46;99620.75;;;0.87;53.72
71126;BME280;58785;55.566;38.058;2023-03-01T07:42:12;99622.13;;;0.93;53.65
71126;BME280;58785;55.566;38.058;2023-03-01T07:44:38;99620.78;;;1.00;54.09
71126;BME280;58785;55.566;38.058;2023-03-01T07:47:04;99626.63;;;1.44;53.04
71126;BME280;58785;55.566;38.058;2023-03-01T07:49:29;99633.28;;;1.76;52.69
71126;BME280;58785;55.566;38.058;2023-03-01T07:51:55;99623.63;;;2.01;52.24
71126;BME280;58785;55.566;38.058;2023-03-01T07:54:21;99620.84;;;2.28;51.54
71126;BME280;58785;55.566;38.058;2023-03-01T07:56:47;99629.38;;;2.45;51.46
71126;BME280;58785;55.566;38.058;2023-03-01T07:59:12;99627.78;;;2.55;51.47
71126;BME280;58785;55.566;38.058;2023-03-01T08:01:38;99631.91;;;2.46;51.65
71126;BME280;58785;55.566;38.058;2023-03-01T08:04:04;99626.97;;;2.42;51.75
71126;BME280;58785;55.566;38.058;2023-03-01T08:06:34;99633.53;;;2.60;52.18
71126;BME280;58785;55.566;38.058;2023-03-01T08:09:00;99625.63;;;2.60;51.39
71126;BME280;58785;55.566;38.058;2023-03-01T08:11:26;99620.47;;;2.71;51.71
71126;BME280;58785;55.566;38.058;2023-03-01T08:13:53;99629.22;;;2.72;51.64
71126;BME280;58785;55.566;38.058;2023-03-01T08:16:19;99634.63;;;2.45;51.07
71126;BME280;58785;55.566;38.058;2023-03-01T08:18:45;99620.84;;;2.28;51.83
71126;BME280;58785;55.566;38.058;2023-03-01T08:21:15;99640.03;;;2.18;51.05
71126;BME280;58785;55.566;38.058;2023-03-01T08:23:42;99637.59;;;2.15;51.70
71126;BME280;58785;55.566;38.058;2023-03-01T08:26:17;99632.66;;;2.23;51.37
71126;BME280;58785;55.566;38.058;2023-03-01T08:28:44;99619.50;;;2.36;51.16
71126;BME280;58785;55.566;38.058;2023-03-01T08:31:19;99631.94;;;2.21;50.97
71126;BME280;58785;55.566;38.058;2023-03-01T08:33:46;99647.91;;;2.05;51.05
71126;BME280;58785;55.566;38.058;2023-03-01T08:36:22;99630.97;;;1.84;50.98
71126;BME280;58785;55.566;38.058;2023-03-01T08:38:48;99627.41;;;1.85;51.34
71126;BME280;58785;55.566;38.058;2023-03-01T08:41:14;99634.13;;;1.76;51.27
71126;BME280;58785;55.566;38.058;2023-03-01T08:43:40;99625.22;;;1.91;51.53
71126;BME280;58785;55.566;38.058;2023-03-01T08:46:06;99622.25;;;2.09;51.46
71126;BME280;58785;55.566;38.058;2023-03-01T08:48:32;99629.84;;;2.13;50.68
71126;BME280;58785;55.566;38.058;2023-03-01T08:51:11;99632.47;;;2.13;50.79
71126;BME280;58785;55.566;38.058;2023-03-01T08:53:36;99631.59;;;1.87;50.57
71126;BME280;58785;55.566;38.058;2023-03-01T08:56:03;99652.91;;;1.70;50.82
71126;BME280;58785;55.566;38.058;2023-03-01T08:58:29;99656.91;;;1.63;51.05
71126;BME280;58785;55.566;38.058;2023-03-01T09:00:54;99654.91;;;1.54;51.08
71126;BME280;58785;55.566;38.058;2023-03-01T09:03:23;99654.56;;;1.46;51.19
71126;BME280;58785;55.566;38.058;2023-03-01T09:05:49;99651.06;;;1.32;51.48
71126;BME280;58785;55.566;38.058;2023-03-01T09:08:16;99649.53;;;1.42;51.69
71126;BME280;58785;55.566;38.058;2023-03-01T09:10:42;99650.50;;;1.54;51.39
71126;BME280;58785;55.566;38.058;2023-03-01T09:13:08;99634.16;;;1.36;51.21
71126;BME280;58785;55.566;38.058;2023-03-01T09:15:34;99655.78;;;1.40;51.48
71126;BME280;58785;55.566;38.058;2023-03-01T09:18:01;99655.81;;;1.13;51.82
71126;BME280;58785;55.566;38.058;2023-03-01T09:20:27;99666.25;;;0.73;52.31
71126;BME280;58785;55.566;38.058;2023-03-01T09:22:52;99658.78;;;0.53;52.77
71126;BME280;58785;55.566;38.058;2023-03-01T09:25:18;99652.22;;;0.32;53.27
71126;BME280;58785;55.566;38.058;2023-03-01T09:27:43;99655.66;;;0.46;53.04
71126;BME280;58785;55.566;38.058;2023-03-01T09:30:10;99656.69;;;0.29;53.33
71126;BME280;58785;55.566;38.058;2023-03-01T09:32:35;99650.34;;;0.19;53.79
71126;BME280;58785;55.566;38.058;2023-03-01T09:35:01;99668.03;;;0.16;54.00
71126;BME280;58785;55.566;38.058;2023-03-01T09:37:30;99658.69;;;0.12;53.93
71126;BME280;58785;55.566;38.058;2023-03-01T09:39:56;99659.88;;;0.06;54.59
71126;BME280;58785;55.566;38.058;2023-03-01T09:42:22;99662.59;;;0.05;54.11
71126;BME280;58785;55.566;38.058;2023-03-01T09:44:53;99649.09;;;-0.18;54.24
71126;BME280;58785;55.566;38.058;2023-03-01T09:47:34;99659.00;;;-0.23;54.38
71126;BME280;58785;55.566;38.058;2023-03-01T09:50:14;99658.84;;;-0.20;55.08
71126;BME280;58785;55.566;38.058;2023-03-01T09:52:46;99661.53;;;-0.21;54.60
71126;BME280;58785;55.566;38.058;2023-03-01T09:55:31;99665.75;;;-0.19;54.59
71126;BME280;58785;55.566;38.058;2023-03-01T09:58:08;99665.41;;;-0.43;54.75
71126;BME280;58785;55.566;38.058;2023-03-01T10:00:49;99657.94;;;-0.35;54.50
71126;BME280;58785;55.566;38.058;2023-03-01T10:06:15;99662.75;;;-0.27;54.12
71126;BME280;58785;55.566;38.058;2023-03-01T10:08:53;99666.56;;;-0.33;54.17
71126;BME280;58785;55.566;38.058;2023-03-01T10:11:24;99652.03;;;-0.08;54.20
71126;BME280;58785;55.566;38.058;2023-03-01T10:16:55;99661.97;;;0.44;52.96
71126;BME280;58785;55.566;38.058;2023-03-01T10:19:34;99665.59;;;0.55;52.29
71126;BME280;58785;55.566;38.058;2023-03-01T10:22:16;99653.31;;;0.70;52.50
71126;BME280;58785;55.566;38.058;2023-03-01T10:24:44;99660.31;;;0.84;51.98
71126;BME280;58785;55.566;38.058;2023-03-01T10:27:22;99669.97;;;0.69;51.38
71126;BME280;58785;55.566;38.058;2023-03-01T10:32:29;99661.63;;;0.77;51.90
71126;BME280;58785;55.566;38.058;2023-03-01T10:34:55;99669.13;;;1.10;51.94
71126;BME280;58785;55.566;38.058;2023-03-01T10:37:22;99660.03;;;1.15;51.55
71126;BME280;58785;55.566;38.058;2023-03-01T10:40:09;99668.72;;;1.30;51.97
71126;BME280;58785;55.566;38.058;2023-03-01T10:42:39;99662.44;;;1.19;51.59
71126;BME280;58785;55.566;38.058;2023-03-01T10:45:35;99672.94;;;1.19;51.92
71126;BME280;58785;55.566;38.058;2023-03-01T10:48:21;99692.31;;;1.03;51.38
71126;BME280;58785;55.566;38.058;2023-03-01T10:53:40;99693.38;;;0.86;51.89
71126;BME280;58785;55.566;38.058;2023-03-01T10:56:14;99702.09;;;1.01;52.16
71126;BME280;58785;55.566;38.058;2023-03-01T10:59:00;99705.34;;;1.05;51.89
71126;BME280;58785;55.566;38.058;2023-03-01T11:01:29;99698.38;;;0.77;52.10
71126;BME280;58785;55.566;38.058;2023-03-01T11:04:23;99693.03;;;0.64;52.89
71126;BME280;58785;55.566;38.058;2023-03-01T11:06:58;99698.84;;;0.83;52.93
71126;BME280;58785;55.566;38.058;2023-03-01T11:09:24;99705.66;;;1.00;52.78
71126;BME280;58785;55.566;38.058;2023-03-01T11:11:55;99698.69;;;1.13;52.43
71126;BME280;58785;55.566;38.058;2023-03-01T11:14:23;99712.50;;;1.03;52.38
71126;BME280;58785;55.566;38.058;2023-03-01T11:16:59;99709.25;;;0.71;52.02
71126;BME280;58785;55.566;38.058;2023-03-01T11:19:26;99709.91;;;0.60;52.68
71126;BME280;58785;55.566;38.058;2023-03-01T11:22:12;99696.03;;;0.72;53.08
71126;BME280;58785;55.566;38.058;2023-03-01T11:24:49;99703.09;;;0.99;52.62
71126;BME280;58785;55.566;38.058;2023-03-01T11:27:24;99696.78;;;1.15;52.22
71126;BME280;58785;55.566;38.058;2023-03-01T11:35:36;99699.34;;;1.57;51.70
71126;BME280;58785;55.566;38.058;2023-03-01T11:38:22;99703.31;;;1.50;52.15
71126;BME280;58785;55.566;38.058;2023-03-01T11:40:54;99691.47;;;1.57;52.23
71126;BME280;58785;55.566;38.058;2023-03-01T11:43:37;99684.69;;;1.40;52.18
71126;BME280;58785;55.566;38.058;2023-03-01T11:49:33;99695.66;;;1.47;52.31
71126;BME280;58785;55.566;38.058;2023-03-01T12:08:07;99702.66;;;1.33;52.85
71126;BME280;58785;55.566;38.058;2023-03-01T12:33:03;99715.13;;;0.89;52.20
71126;BME280;58785;55.566;38.058;2023-03-01T12:38:42;99708.31;;;0.72;51.95
71126;BME280;58785;55.566;38.058;2023-03-01T12:51:54;99710.28;;;0.68;51.96
71126;BME280;58785;55.566;38.058;2023-03-01T12:54:27;99705.78;;;0.56;52.17
71126;BME280;58785;55.566;38.058;2023-03-01T12:56:56;99710.84;;;0.59;52.01
71126;BME280;58785;55.566;38.058;2023-03-01T12:59:32;99699.22;;;0.49;52.09
71126;BME280;58785;55.566;38.058;2023-03-01T13:02:15;99706.25;;;0.63;52.19
71126;BME280;58785;55.566;38.058;2023-03-01T13:04:55;99701.75;;;0.65;52.25
71126;BME280;58785;55.566;38.058;2023-03-01T13:07:38;99684.06;;;0.54;51.73
71126;BME280;58785;55.566;38.058;2023-03-01T13:17:54;99695.75;;;0.77;51.80
71126;BME280;58785;55.566;38.058;2023-03-01T13:21:06;99695.38;;;0.83;52.32
71126;BME280;58785;55.566;38.058;2023-03-01T13:31:08;99693.25;;;0.61;52.81
71126;BME280;58785;55.566;38.058;2023-03-01T13:33:47;99705.88;;;0.69;52.82
71126;BME280;58785;55.566;38.058;2023-03-01T13:39:28;99692.69;;;0.70;52.72
71126;BME280;58785;55.566;38.058;2023-03-01T13:41:57;99686.38;;;0.58;53.17
71126;BME280;58785;55.566;38.058;2023-03-01T13:44:36;99680.13;;;0.47;53.24
71126;BME280;58785;55.566;38.058;2023-03-01T13:47:17;99672.81;;;0.38;53.51
71126;BME280;58785;55.566;38.058;2023-03-01T13:49:46;99679.28;;;0.46;53.35
71126;BME280;58785;55.566;38.058;2023-03-01T13:57:42;99664.75;;;0.26;53.75
71126;BME280;58785;55.566;38.058;2023-03-01T14:00:28;99681.34;;;0.27;53.42
71126;BME280;58785;55.566;38.058;2023-03-01T14:03:20;99684.06;;;0.11;54.17
71126;BME280;58785;55.566;38.058;2023-03-01T14:08:35;99680.75;;;-0.07;54.09
71126;BME280;58785;55.566;38.058;2023-03-01T14:19:24;99670.59;;;-0.27;54.84
71126;BME280;58785;55.566;38.058;2023-03-01T14:27:44;99688.81;;;-0.40;55.30
71126;BME280;58785;55.566;38.058;2023-03-01T14:30:22;99670.91;;;-0.47;55.25
71126;BME280;58785;55.566;38.058;2023-03-01T14:33:19;99679.03;;;-0.52;55.23
71126;BME280;58785;55.566;38.058;2023-03-01T14:35:59;99677.53;;;-0.56;55.34
71126;BME280;58785;55.566;38.058;2023-03-01T14:38:39;99670.84;;;-0.62;55.62
71126;BME280;58785;55.566;38.058;2023-03-01T14:41:10;99680.38;;;-0.61;55.38
71126;BME280;58785;55.566;38.058;2023-03-01T14:43:44;99690.22;;;-0.64;55.68
71126;BME280;58785;55.566;38.058;2023-03-01T14:46:22;99678.97;;;-0.66;56.04
71126;BME280;58785;55.566;38.058;2023-03-01T14:48:55;99690.38;;;-0.67;56.05
71126;BME280;58785;55.566;38.058;2023-03-01T14:51:23;99678.22;;;-0.68;55.90
71126;BME280;58785;55.566;38.058;2023-03-01T14:53:50;99664.38;;;-0.70;56.06
71126;BME280;58785;55.566;38.058;2023-03-01T14:56:17;99674.09;;;-0.72;55.99
71126;BME280;58785;55.566;38.058;2023-03-01T14:58:43;99681.94;;;-0.72;56.25
71126;BME280;58785;55.566;38.058;2023-03-01T15:01:15;99689.13;;;-0.76;55.95
71126;BME280;58785;55.566;38.058;2023-03-01T15:03:48;99686.59;;;-0.77;56.09
71126;BME280;58785;55.566;38.058;2023-03-01T15:06:18;99691.41;;;-0.85;56.15
71126;BME280;58785;55.566;38.058;2023-03-01T15:08:47;99679.88;;;-0.97;56.23